ADDS METAR Data INFO
IDs: Format: Raw Decoded Include TAF

Data at: 2223 UTC 24 Jun 2018

KMHR 242150Z 21008G14KT 10SM SKC 34/12 A2976
KMHR 242050Z 22006G14KT 10SM SKC 33/12 A2976
KMHR 241950Z 18008KT 10SM SKC 33/12 A2977
KMHR 241845Z 25007KT 10SM SKC 31/12 A2977
KMHR 241745Z 29005KT 10SM SKC 29/12 A2977
KMHR 241645Z 26005KT 10SM SKC 27/12 A2976
KMHR 241555Z 20005KT 10SM SKC 26/12 A2975
KMHR 241445Z 17003KT 10SM SCT250 23/11 A2973
KMHR 241345Z 14005KT 10SM SCT250 19/12 A2971
KMHR 241245Z 00000KT 10SM SCT250 19/11 A2970
KMHR 241156Z 05005KT 10SM FEW250 19/11 A2969
KMHR 240350Z 00000KT 10SM SKC 31/08 A2964
KMHR 240255Z 000000KT 10SM SKC 32/08 A2964
KMHR 240155Z 34010KT 10SM SKC 37/07 A2964
KMHR 240055Z 34010KT 10SM SKC 37/09 A2966
KMHR 232350Z 34011KT 10SM SKC 36/07 A2968
KMHR 232250Z 34007G15KT 10SM SKC 37/07 A2969
KMHR 232045Z 29010KT 10SM SKC 35/09 A2972
KMHR 231953Z 30009G15KT 10SM SKC 34/09 A2973
KMHR 231845Z 34011KT 10SM SKC 33/08 A2974
KMHR 231745Z 32012G17KT 10SM SKC 30/08 A2975
KMHR 231645Z 36013KT 10SM SKC 29/08 A2976
KMHR 231548Z 34015G21KT 10SM SKC 27/08 A2976
KMHR 231445Z 33008KT 10SM SKC 24/12 A2976
KMHR 231345Z 00000KT 10SM SKC 22/13 A2976
KMHR 231245Z 00000KT 10SM SKC 19/11 A2975
KMHR 231145Z 06004KT 10SM SKC 17/10 A2974
KMHR 231045Z 00000KT 10SM SKC 19/10 A2973